Time;durP1;ratioP1;P1;durP2;ratioP2;P2;SDS_P1;SDS_P2;PMS_P1;PMS_P2;Temp;Humidity;BMP_temperature;BMP_pressure;BME280_temperature;BME280_humidity;BME280_pressure;Samples;Min_cycle;Max_cycle;Signal;HPM_P1;HPM_P2
2022/08/03 00:01:22;;;;;;;;;;;25.00;74.30;;;;;;5073434;28;19916;-59
2022/08/03 00:03:48;;;;;;;;;;;25.00;73.60;;;;;;5073543;28;19916;-60
2022/08/03 00:06:13;;;;;;;;;;;25.00;76.40;;;;;;5073789;28;19916;-61
2022/08/03 00:08:39;;;;;;;;;;;25.00;76.00;;;;;;5073577;28;19908;-61
2022/08/03 00:11:05;;;;;;;;;;;24.90;75.10;;;;;;5073643;28;19961;-60
2022/08/03 00:13:31;;;;;;;;;;;24.90;74.70;;;;;;5055161;28;20363;-60
2022/08/03 00:15:57;;;;;;;;;;;24.90;76.80;;;;;;5073862;28;19908;-60
2022/08/03 00:18:22;;;;;;;;;;;24.90;75.40;;;;;;5073114;28;20454;-60
2022/08/03 00:20:48;;;;;;;;;;;24.80;75.50;;;;;;5073288;28;19962;-60
2022/08/03 00:23:14;;;;;;;;;;;24.80;76.60;;;;;;5073311;28;19961;-59
2022/08/03 00:25:39;;;;;;;;;;;24.80;77.50;;;;;;5072544;28;19913;-60
2022/08/03 00:28:05;;;;;;;;;;;24.70;76.70;;;;;;5073007;28;20384;-60
2022/08/03 00:30:31;;;;;;;;;;;24.70;76.90;;;;;;5073567;28;20022;-60
2022/08/03 00:32:56;;;;;;;;;;;24.60;77.40;;;;;;5073109;28;19954;-60
2022/08/03 00:35:22;;;;;;;;;;;24.60;78.20;;;;;;5073222;28;20279;-59
2022/08/03 00:37:47;;;;;;;;;;;24.60;77.50;;;;;;5073579;28;19924;-60
2022/08/03 00:40:13;;;;;;;;;;;24.50;78.70;;;;;;5072672;28;19913;-60
2022/08/03 00:42:49;;;;;;;;;;;24.40;77.90;;;;;;5072862;28;19951;-59
2022/08/03 00:45:15;;;;;;;;;;;24.40;78.30;;;;;;5072949;28;20024;-60
2022/08/03 00:47:41;;;;;;;;;;;24.30;78.80;;;;;;5072932;28;19920;-60
2022/08/03 00:50:07;;;;;;;;;;;24.30;79.10;;;;;;5073212;28;19916;-60
2022/08/03 00:52:33;;;;;;;;;;;24.20;78.30;;;;;;5073132;28;19915;-60
2022/08/03 00:54:59;;;;;;;;;;;24.10;79.20;;;;;;5072098;28;19908;-61
2022/08/03 00:57:25;;;;;;;;;;;24.10;78.30;;;;;;5072757;28;19916;-61
2022/08/03 00:59:50;;;;;;;;;;;24.10;79.00;;;;;;5073166;28;19909;-60
2022/08/03 01:02:16;;;;;;;;;;;24.00;78.80;;;;;;5054757;28;20404;-58
2022/08/03 01:04:41;;;;;;;;;;;24.00;78.70;;;;;;5072759;28;19920;-60
2022/08/03 01:07:16;;;;;;;;;;;23.90;79.20;;;;;;5072823;28;20403;-60
2022/08/03 01:09:47;;;;;;;;;;;23.90;78.90;;;;;;5072530;28;20407;-60
2022/08/03 01:12:18;;;;;;;;;;;23.90;79.40;;;;;;5072674;28;19908;-60
2022/08/03 01:14:53;;;;;;;;;;;23.90;79.20;;;;;;5072019;28;19919;-60
2022/08/03 01:17:24;;;;;;;;;;;23.80;79.30;;;;;;5072231;28;19934;-60
2022/08/03 01:19:55;;;;;;;;;;;23.80;79.20;;;;;;5072086;28;19918;-60
2022/08/03 01:22:20;;;;;;;;;;;23.80;79.00;;;;;;5072770;28;19955;-60
2022/08/03 01:24:57;;;;;;;;;;;23.80;79.80;;;;;;5071564;28;19967;-60
2022/08/03 01:27:30;;;;;;;;;;;23.70;79.00;;;;;;5072372;28;19909;-60
2022/08/03 01:30:03;;;;;;;;;;;23.70;79.20;;;;;;5071234;28;20277;-60
2022/08/03 01:32:45;;;;;;;;;;;23.60;80.20;;;;;;5072146;28;19916;-60
2022/08/03 01:35:12;;;;;;;;;;;23.60;80.30;;;;;;5072218;28;19916;-60
2022/08/03 01:37:43;;;;;;;;;;;23.60;80.60;;;;;;5071819;28;19924;-59
2022/08/03 01:40:09;;;;;;;;;;;23.60;79.70;;;;;;5071862;28;19908;-60
2022/08/03 01:42:35;;;;;;;;;;;23.50;79.80;;;;;;5065940;28;19942;-60
2022/08/03 01:45:02;;;;;;;;;;;23.50;80.30;;;;;;5071735;28;19916;-60
2022/08/03 01:47:28;;;;;;;;;;;23.50;80.20;;;;;;5071672;28;19909;-60
2022/08/03 01:49:55;;;;;;;;;;;23.40;80.60;;;;;;5071779;28;19999;-60
2022/08/03 01:52:21;;;;;;;;;;;23.40;81.30;;;;;;5071814;28;19919;-59
2022/08/03 01:54:48;;;;;;;;;;;23.40;80.20;;;;;;5071624;28;19908;-60
2022/08/03 01:57:14;;;;;;;;;;;23.30;80.40;;;;;;5071486;28;19924;-60
2022/08/03 01:59:41;;;;;;;;;;;23.30;80.70;;;;;;5071412;28;19909;-60
2022/08/03 02:02:07;;;;;;;;;;;23.30;80.60;;;;;;5071515;28;19912;-60
2022/08/03 02:04:33;;;;;;;;;;;23.30;79.90;;;;;;5072049;28;20292;-60
2022/08/03 02:07:00;;;;;;;;;;;23.30;80.30;;;;;;5071219;28;19994;-60
2022/08/03 02:09:25;;;;;;;;;;;23.20;80.40;;;;;;5071293;28;19919;-60
2022/08/03 02:11:51;;;;;;;;;;;23.20;80.40;;;;;;5071048;28;19909;-61
2022/08/03 02:14:18;;;;;;;;;;;23.20;80.70;;;;;;5071206;28;20377;-60
2022/08/03 02:16:44;;;;;;;;;;;23.20;80.50;;;;;;5071360;28;19913;-60
2022/08/03 02:19:10;;;;;;;;;;;23.20;80.40;;;;;;5071218;28;19991;-60
2022/08/03 02:21:36;;;;;;;;;;;23.20;80.90;;;;;;5052304;28;20470;-59
2022/08/03 02:24:03;;;;;;;;;;;23.10;80.80;;;;;;5071064;28;19959;-60
2022/08/03 02:26:29;;;;;;;;;;;23.10;80.90;;;;;;5071123;28;19995;-60
2022/08/03 02:28:56;;;;;;;;;;;23.10;80.20;;;;;;5070708;28;20398;-60
2022/08/03 02:31:23;;;;;;;;;;;23.10;80.70;;;;;;5052705;28;19931;-59
2022/08/03 02:33:51;;;;;;;;;;;23.10;80.50;;;;;;5071477;28;19908;-60
2022/08/03 02:36:20;;;;;;;;;;;23.10;80.20;;;;;;5070691;28;19924;-59
2022/08/03 02:38:48;;;;;;;;;;;23.00;80.40;;;;;;5070802;28;19968;-59
2022/08/03 02:41:19;;;;;;;;;;;23.00;80.80;;;;;;5070699;28;20003;-60
2022/08/03 02:43:47;;;;;;;;;;;23.00;81.30;;;;;;5071211;28;20441;-60
2022/08/03 02:46:13;;;;;;;;;;;23.00;80.90;;;;;;5070968;28;19912;-60
2022/08/03 02:48:40;;;;;;;;;;;22.90;81.10;;;;;;5071271;28;19913;-60
2022/08/03 02:51:05;;;;;;;;;;;22.90;81.90;;;;;;5070643;28;19961;-60
2022/08/03 02:53:32;;;;;;;;;;;22.90;80.60;;;;;;5070625;28;19912;-59
2022/08/03 02:55:58;;;;;;;;;;;22.90;80.90;;;;;;5070762;28;20377;-60
2022/08/03 02:58:24;;;;;;;;;;;22.90;81.20;;;;;;5071247;28;19936;-60
2022/08/03 03:00:50;;;;;;;;;;;22.90;81.50;;;;;;5070736;28;19909;-60
2022/08/03 03:03:17;;;;;;;;;;;22.90;81.40;;;;;;5070563;28;19925;-60
2022/08/03 03:05:43;;;;;;;;;;;22.90;81.80;;;;;;5070672;28;19908;-60
2022/08/03 03:08:11;;;;;;;;;;;22.90;81.40;;;;;;5070531;28;19935;-60
2022/08/03 03:10:36;;;;;;;;;;;22.80;82.20;;;;;;5070922;28;19908;-60
2022/08/03 03:13:02;;;;;;;;;;;22.80;81.10;;;;;;5070798;28;19966;-59
2022/08/03 03:15:28;;;;;;;;;;;22.80;81.80;;;;;;5070428;28;19999;-60
2022/08/03 03:17:54;;;;;;;;;;;22.80;81.10;;;;;;5064044;28;19955;-60
2022/08/03 03:20:20;;;;;;;;;;;22.80;81.20;;;;;;5069694;28;19948;-59
2022/08/03 03:22:47;;;;;;;;;;;22.80;81.20;;;;;;5070468;28;19912;-60
2022/08/03 03:25:12;;;;;;;;;;;22.80;80.80;;;;;;5070618;28;19916;-59
2022/08/03 03:27:38;;;;;;;;;;;22.80;81.30;;;;;;5070413;28;19996;-59
2022/08/03 03:30:04;;;;;;;;;;;22.80;81.50;;;;;;5070972;28;19992;-60
2022/08/03 03:32:29;;;;;;;;;;;22.80;81.20;;;;;;5070235;28;19967;-60
2022/08/03 03:34:55;;;;;;;;;;;22.70;81.00;;;;;;5051953;28;20384;-59
2022/08/03 03:37:21;;;;;;;;;;;22.70;81.70;;;;;;5070297;28;19913;-60
2022/08/03 03:39:46;;;;;;;;;;;22.70;81.80;;;;;;5070780;28;19919;-60
2022/08/03 03:42:12;;;;;;;;;;;22.70;81.20;;;;;;5070536;28;19908;-60
2022/08/03 03:44:37;;;;;;;;;;;22.70;81.80;;;;;;5070620;28;19970;-60
2022/08/03 03:47:03;;;;;;;;;;;22.70;82.00;;;;;;5070285;28;19947;-60
2022/08/03 03:49:29;;;;;;;;;;;22.70;81.60;;;;;;5070147;28;19920;-60
2022/08/03 03:51:55;;;;;;;;;;;22.70;81.30;;;;;;5070132;28;19916;-60
2022/08/03 03:54:20;;;;;;;;;;;22.70;81.60;;;;;;5073332;28;19916;-59
2022/08/03 03:56:46;;;;;;;;;;;22.70;82.10;;;;;;5073663;28;19920;-60
2022/08/03 03:59:11;;;;;;;;;;;22.70;82.10;;;;;;5074252;28;19908;-60
2022/08/03 04:01:37;;;;;;;;;;;22.60;81.20;;;;;;5074230;28;19916;-60
2022/08/03 04:10:57;;;;;;;;;;;22.60;81.20;;;;;;5073192;28;20003;-59
2022/08/03 04:12:21;;;;;;;;;;;22.60;82.20;;;;;;5074216;28;19915;-61
2022/08/03 04:14:47;;;;;;;;;;;22.50;81.90;;;;;;5073468;28;19912;-60
2022/08/03 04:17:14;;;;;;;;;;;22.60;81.70;;;;;;5073619;28;19909;-60
2022/08/03 04:19:42;;;;;;;;;;;22.60;81.90;;;;;;5073237;28;20010;-60
2022/08/03 04:22:12;;;;;;;;;;;22.60;82.20;;;;;;5073374;28;19916;-60
2022/08/03 04:24:40;;;;;;;;;;;22.60;82.30;;;;;;5073517;28;19940;-59
2022/08/03 04:27:07;;;;;;;;;;;22.60;81.90;;;;;;5073224;28;20379;-60
2022/08/03 04:29:33;;;;;;;;;;;22.50;81.70;;;;;;5073149;28;20670;-59
2022/08/03 04:31:59;;;;;;;;;;;22.60;82.70;;;;;;5055030;28;20380;-60
2022/08/03 04:34:25;;;;;;;;;;;22.50;82.80;;;;;;5073247;28;19909;-61
2022/08/03 04:36:51;;;;;;;;;;;22.50;83.00;;;;;;5073107;28;20265;-60
2022/08/03 04:39:22;;;;;;;;;;;22.50;83.30;;;;;;5072862;28;20301;-60
2022/08/03 04:41:48;;;;;;;;;;;22.50;83.60;;;;;;5066978;28;19955;-60
2022/08/03 04:44:14;;;;;;;;;;;22.50;83.10;;;;;;5073404;28;20375;-60
2022/08/03 04:46:40;;;;;;;;;;;22.50;82.30;;;;;;5072685;28;19956;-60
2022/08/03 04:49:06;;;;;;;;;;;22.50;83.90;;;;;;5072465;28;20003;-60
2022/08/03 04:51:33;;;;;;;;;;;22.50;83.70;;;;;;5072674;28;19998;-60
2022/08/03 04:53:59;;;;;;;;;;;22.50;83.80;;;;;;5073131;28;19908;-59
2022/08/03 04:56:25;;;;;;;;;;;22.50;84.30;;;;;;5072512;28;19915;-60
2022/08/03 04:58:50;;;;;;;;;;;22.50;84.00;;;;;;5072742;28;19909;-60
2022/08/03 05:01:16;;;;;;;;;;;22.50;83.50;;;;;;5072079;28;19922;-60
2022/08/03 05:03:41;;;;;;;;;;;22.50;83.40;;;;;;5072446;28;19948;-60
2022/08/03 05:06:07;;;;;;;;;;;22.50;83.70;;;;;;5072742;28;19913;-59
2022/08/03 05:08:32;;;;;;;;;;;22.50;83.40;;;;;;5072946;28;19920;-60
2022/08/03 05:10:58;;;;;;;;;;;22.50;83.80;;;;;;5072673;28;19915;-60
2022/08/03 05:13:23;;;;;;;;;;;22.60;84.00;;;;;;5072157;28;20292;-60
2022/08/03 05:15:49;;;;;;;;;;;22.60;83.70;;;;;;5072134;28;20015;-60
2022/08/03 05:18:15;;;;;;;;;;;22.60;84.70;;;;;;5072017;28;19912;-60
2022/08/03 05:20:41;;;;;;;;;;;22.70;84.40;;;;;;5072309;28;20037;-61
2022/08/03 05:23:06;;;;;;;;;;;22.70;83.80;;;;;;5072516;28;19995;-60
2022/08/03 05:25:32;;;;;;;;;;;22.70;84.20;;;;;;5071913;28;20399;-59
2022/08/03 05:27:57;;;;;;;;;;;22.80;84.00;;;;;;5071892;28;20365;-59
2022/08/03 05:30:23;;;;;;;;;;;22.80;84.60;;;;;;5071706;28;19908;-60
2022/08/03 05:32:48;;;;;;;;;;;22.90;84.90;;;;;;5071719;28;20323;-60
2022/08/03 05:35:14;;;;;;;;;;;22.90;85.30;;;;;;5072915;28;19958;-60
2022/08/03 05:37:39;;;;;;;;;;;22.90;84.50;;;;;;5071557;28;19921;-60
2022/08/03 05:40:05;;;;;;;;;;;22.90;84.40;;;;;;5071881;28;19919;-59
2022/08/03 05:42:30;;;;;;;;;;;23.00;84.70;;;;;;5071829;28;20262;-60
2022/08/03 05:44:56;;;;;;;;;;;23.00;84.30;;;;;;5071847;28;19974;-60
2022/08/03 05:47:21;;;;;;;;;;;23.00;84.50;;;;;;5071619;28;19954;-60
2022/08/03 05:49:47;;;;;;;;;;;23.10;84.60;;;;;;5071726;28;20352;-59
2022/08/03 05:52:12;;;;;;;;;;;23.10;84.90;;;;;;5071647;28;20003;-59
2022/08/03 05:54:38;;;;;;;;;;;23.20;85.30;;;;;;5071855;28;20296;-60
2022/08/03 05:57:04;;;;;;;;;;;23.20;84.80;;;;;;5071915;28;20003;-60
2022/08/03 05:59:29;;;;;;;;;;;23.20;84.90;;;;;;5071033;28;20169;-61
2022/08/03 06:01:55;;;;;;;;;;;23.20;85.10;;;;;;5070983;28;19958;-59
2022/08/03 06:04:20;;;;;;;;;;;23.30;85.00;;;;;;5071893;28;19923;-60
2022/08/03 06:06:47;;;;;;;;;;;23.30;84.90;;;;;;5071135;28;20027;-60
2022/08/03 06:09:12;;;;;;;;;;;23.30;84.90;;;;;;5071449;28;19914;-60
2022/08/03 06:11:39;;;;;;;;;;;23.30;84.90;;;;;;5053293;28;20049;-61
2022/08/03 06:14:04;;;;;;;;;;;23.40;85.20;;;;;;5070975;28;19965;-60
2022/08/03 06:16:30;;;;;;;;;;;23.40;85.20;;;;;;5070872;28;20188;-60
2022/08/03 06:18:55;;;;;;;;;;;23.40;84.80;;;;;;5071581;28;20377;-60
2022/08/03 06:21:21;;;;;;;;;;;23.40;84.90;;;;;;5071410;28;19915;-59
2022/08/03 06:23:46;;;;;;;;;;;23.40;84.90;;;;;;5053223;28;19921;-60
2022/08/03 06:26:12;;;;;;;;;;;23.50;84.90;;;;;;5071016;28;20001;-60
2022/08/03 06:28:37;;;;;;;;;;;23.50;84.90;;;;;;5071069;28;20007;-60
2022/08/03 06:31:03;;;;;;;;;;;23.50;85.00;;;;;;5069953;28;19912;-60
2022/08/03 06:33:29;;;;;;;;;;;23.60;85.30;;;;;;5060823;28;20395;-59
2022/08/03 06:35:54;;;;;;;;;;;23.60;85.10;;;;;;5071161;28;19909;-60
2022/08/03 06:38:20;;;;;;;;;;;23.60;84.90;;;;;;5071290;28;20408;-59
2022/08/03 06:40:49;;;;;;;;;;;23.60;84.90;;;;;;5070890;28;20333;-60
2022/08/03 06:43:14;;;;;;;;;;;23.70;85.00;;;;;;5070562;28;19909;-60
2022/08/03 06:45:40;;;;;;;;;;;23.70;85.10;;;;;;5070641;28;19974;-60
2022/08/03 06:48:06;;;;;;;;;;;23.70;85.00;;;;;;5071214;28;20360;-60
2022/08/03 06:50:33;;;;;;;;;;;23.80;85.10;;;;;;5070865;28;19909;-60
2022/08/03 06:52:59;;;;;;;;;;;23.80;84.90;;;;;;5070479;28;20292;-60
2022/08/03 06:55:24;;;;;;;;;;;23.80;85.00;;;;;;5070406;28;20003;-60
2022/08/03 06:57:50;;;;;;;;;;;23.90;85.10;;;;;;5070124;28;20433;-60
2022/08/03 07:00:15;;;;;;;;;;;23.90;85.00;;;;;;5051175;28;20004;-60
2022/08/03 07:02:41;;;;;;;;;;;23.90;84.90;;;;;;5064355;28;19919;-60
2022/08/03 07:05:07;;;;;;;;;;;23.90;84.80;;;;;;5070155;28;19999;-59
2022/08/03 07:07:33;;;;;;;;;;;24.00;85.00;;;;;;5071236;28;19912;-60
2022/08/03 07:09:59;;;;;;;;;;;24.10;85.00;;;;;;5070841;28;19908;-60
2022/08/03 07:12:28;;;;;;;;;;;24.10;84.80;;;;;;5070044;28;19912;-59
2022/08/03 07:14:54;;;;;;;;;;;24.10;84.90;;;;;;5068211;28;19917;-59
2022/08/03 07:17:19;;;;;;;;;;;24.10;85.00;;;;;;5069528;28;19908;-60
2022/08/03 07:19:45;;;;;;;;;;;24.20;84.80;;;;;;5071165;28;20285;-59
2022/08/03 07:22:10;;;;;;;;;;;24.20;84.50;;;;;;5067400;28;19912;-58
2022/08/03 07:24:36;;;;;;;;;;;24.20;84.50;;;;;;5067512;28;20009;-57
2022/08/03 07:27:02;;;;;;;;;;;24.30;84.50;;;;;;5069867;28;20273;-58
2022/08/03 07:29:27;;;;;;;;;;;24.30;84.30;;;;;;5074103;28;19913;-58
2022/08/03 07:31:53;;;;;;;;;;;24.30;84.00;;;;;;5074980;28;20378;-58
2022/08/03 07:34:18;;;;;;;;;;;24.30;83.90;;;;;;5074140;28;19912;-58
2022/08/03 07:36:44;;;;;;;;;;;24.30;84.00;;;;;;5074403;28;19991;-58
2022/08/03 07:39:09;;;;;;;;;;;24.40;83.80;;;;;;5074083;28;19927;-57
2022/08/03 07:41:36;;;;;;;;;;;24.40;83.80;;;;;;5073777;28;19940;-58
2022/08/03 07:44:01;;;;;;;;;;;24.50;83.80;;;;;;5074316;28;19916;-58
2022/08/03 07:46:27;;;;;;;;;;;24.50;83.70;;;;;;5074800;28;19999;-58
2022/08/03 07:48:53;;;;;;;;;;;24.60;83.80;;;;;;5074450;28;20254;-58
2022/08/03 07:51:18;;;;;;;;;;;24.60;83.50;;;;;;5073735;28;20365;-58
2022/08/03 07:53:43;;;;;;;;;;;24.70;83.50;;;;;;5073863;28;20002;-58
2022/08/03 07:56:09;;;;;;;;;;;24.80;83.70;;;;;;5073307;28;19912;-58
2022/08/03 07:58:35;;;;;;;;;;;24.80;83.30;;;;;;5073995;28;19970;-58
2022/08/03 08:01:00;;;;;;;;;;;24.90;83.00;;;;;;5073903;28;20003;-58
2022/08/03 08:03:26;;;;;;;;;;;25.00;83.20;;;;;;5055542;28;19916;-58
2022/08/03 08:05:52;;;;;;;;;;;25.10;83.20;;;;;;5073925;28;19913;-58
2022/08/03 08:08:18;;;;;;;;;;;25.10;83.10;;;;;;5074056;28;19909;-58
2022/08/03 08:10:44;;;;;;;;;;;25.20;82.90;;;;;;5073228;28;19919;-59
2022/08/03 08:13:10;;;;;;;;;;;25.30;82.30;;;;;;5073822;28;19909;-58
2022/08/03 08:15:35;;;;;;;;;;;25.40;82.10;;;;;;5073694;28;20284;-58
2022/08/03 08:18:01;;;;;;;;;;;25.50;82.10;;;;;;5073532;28;20372;-58
2022/08/03 08:20:31;;;;;;;;;;;25.60;81.60;;;;;;5073855;28;19920;-59
2022/08/03 08:22:58;;;;;;;;;;;25.70;81.70;;;;;;5073486;28;19912;-58
2022/08/03 08:25:24;;;;;;;;;;;25.80;81.50;;;;;;5072614;28;19923;-59
2022/08/03 08:27:49;;;;;;;;;;;25.90;81.50;;;;;;5073456;28;20003;-57
2022/08/03 08:30:17;;;;;;;;;;;25.90;80.90;;;;;;5055369;28;19908;-58
2022/08/03 08:32:43;;;;;;;;;;;26.00;81.40;;;;;;5073558;28;19908;-58
2022/08/03 08:35:08;;;;;;;;;;;26.00;80.50;;;;;;5073327;28;20312;-58
2022/08/03 08:37:34;;;;;;;;;;;26.00;79.20;;;;;;5073139;28;19974;-58
2022/08/03 08:40:00;;;;;;;;;;;26.00;80.30;;;;;;5072297;28;20376;-58
2022/08/03 08:42:26;;;;;;;;;;;26.10;80.50;;;;;;5073049;28;20003;-58
2022/08/03 08:44:51;;;;;;;;;;;26.20;80.10;;;;;;5072883;28;20033;-59
2022/08/03 08:47:18;;;;;;;;;;;26.20;79.60;;;;;;5073755;28;19920;-58
2022/08/03 08:49:45;;;;;;;;;;;26.30;79.10;;;;;;5072859;28;19908;-57
2022/08/03 08:52:12;;;;;;;;;;;26.40;78.20;;;;;;5072974;28;19913;-57
2022/08/03 08:54:39;;;;;;;;;;;26.50;78.80;;;;;;5072721;28;20357;-58
2022/08/03 08:57:05;;;;;;;;;;;26.60;79.80;;;;;;5072714;28;20480;-59
2022/08/03 08:59:33;;;;;;;;;;;26.70;78.40;;;;;;5072845;28;19909;-59
2022/08/03 09:01:58;;;;;;;;;;;26.80;79.00;;;;;;5072784;28;19915;-58
2022/08/03 09:04:24;;;;;;;;;;;26.80;78.20;;;;;;5072756;28;19917;-58
2022/08/03 09:06:49;;;;;;;;;;;26.90;76.80;;;;;;5072677;28;19908;-58
2022/08/03 09:09:15;;;;;;;;;;;27.00;77.80;;;;;;5072355;28;19970;-58
2022/08/03 09:11:43;;;;;;;;;;;27.00;77.60;;;;;;5072141;28;19920;-58
2022/08/03 09:14:09;;;;;;;;;;;27.20;76.60;;;;;;5072907;28;20307;-59
2022/08/03 09:16:35;;;;;;;;;;;27.10;77.20;;;;;;5072832;28;19912;-58
2022/08/03 09:19:11;;;;;;;;;;;27.20;75.80;;;;;;5072383;28;20099;-58
2022/08/03 09:21:37;;;;;;;;;;;27.30;75.10;;;;;;5072541;28;19942;-58
2022/08/03 09:24:03;;;;;;;;;;;27.30;76.50;;;;;;5071755;28;19916;-58
2022/08/03 09:26:29;;;;;;;;;;;27.30;75.40;;;;;;5072502;28;19910;-58
2022/08/03 09:28:58;;;;;;;;;;;27.40;74.60;;;;;;5072307;28;19973;-59
2022/08/03 09:31:37;;;;;;;;;;;27.40;74.90;;;;;;5072036;28;19909;-59
2022/08/03 09:34:04;;;;;;;;;;;27.40;74.10;;;;;;5072410;28;19916;-57
2022/08/03 09:36:33;;;;;;;;;;;27.40;74.70;;;;;;5071898;28;19920;-57
2022/08/03 09:39:04;;;;;;;;;;;27.40;74.30;;;;;;5071945;28;20547;-56
2022/08/03 09:41:30;;;;;;;;;;;27.50;73.20;;;;;;5072136;28;20007;-57
2022/08/03 09:43:56;;;;;;;;;;;27.60;74.30;;;;;;5071827;28;20046;-57
2022/08/03 09:46:23;;;;;;;;;;;27.60;73.70;;;;;;5071469;28;20710;-57
2022/08/03 09:48:48;;;;;;;;;;;27.70;73.50;;;;;;5071433;28;19950;-57
2022/08/03 09:51:17;;;;;;;;;;;27.70;73.40;;;;;;5070528;28;19952;-58
2022/08/03 09:53:43;;;;;;;;;;;27.80;73.00;;;;;;5071748;28;19913;-57
2022/08/03 09:56:09;;;;;;;;;;;27.80;72.50;;;;;;5072006;28;19909;-57
2022/08/03 09:58:43;;;;;;;;;;;27.90;72.40;;;;;;5071642;28;19908;-58
2022/08/03 10:01:08;;;;;;;;;;;27.90;72.60;;;;;;5071787;28;19962;-58
2022/08/03 10:03:39;;;;;;;;;;;27.90;72.50;;;;;;5071511;28;19916;-58
2022/08/03 10:06:24;;;;;;;;;;;27.90;70.40;;;;;;5070802;28;19965;-57
2022/08/03 10:09:03;;;;;;;;;;;27.80;71.60;;;;;;5071599;28;20291;-58
2022/08/03 10:11:29;;;;;;;;;;;27.90;72.20;;;;;;5067284;28;19908;-58
2022/08/03 10:13:55;;;;;;;;;;;28.00;71.30;;;;;;5071607;28;19943;-58
2022/08/03 10:16:20;;;;;;;;;;;28.10;71.70;;;;;;5071826;28;19948;-58
2022/08/03 10:18:46;;;;;;;;;;;28.10;71.60;;;;;;5071708;28;19909;-58
2022/08/03 10:21:15;;;;;;;;;;;28.10;70.40;;;;;;5070885;28;19916;-58
2022/08/03 10:23:41;;;;;;;;;;;28.20;71.10;;;;;;5071337;28;19913;-58
2022/08/03 10:26:07;;;;;;;;;;;28.20;71.50;;;;;;5071535;28;19912;-57
2022/08/03 10:28:38;;;;;;;;;;;28.30;69.30;;;;;;5064619;28;19912;-57
2022/08/03 10:31:06;;;;;;;;;;;28.30;70.60;;;;;;5071518;28;19908;-58
2022/08/03 10:33:35;;;;;;;;;;;28.40;68.10;;;;;;5071127;28;19999;-58
2022/08/03 10:36:01;;;;;;;;;;;28.40;68.90;;;;;;5070997;28;19998;-57
2022/08/03 10:38:35;;;;;;;;;;;28.40;69.00;;;;;;5071417;28;20020;-58
2022/08/03 10:41:01;;;;;;;;;;;28.40;69.10;;;;;;5070940;28;19919;-58
2022/08/03 10:43:30;;;;;;;;;;;28.30;68.50;;;;;;5053245;28;19916;-58
2022/08/03 10:45:56;;;;;;;;;;;28.40;69.10;;;;;;5071640;28;19915;-58
2022/08/03 10:48:22;;;;;;;;;;;28.50;69.50;;;;;;5071124;28;19991;-58
2022/08/03 10:50:48;;;;;;;;;;;28.60;69.20;;;;;;5070238;28;20015;-57
2022/08/03 10:53:14;;;;;;;;;;;28.70;68.70;;;;;;5071134;28;19908;-57
2022/08/03 10:58:37;;;;;;;;;;;28.80;67.40;;;;;;5067175;28;20435;-57
2022/08/03 11:01:09;;;;;;;;;;;28.90;66.50;;;;;;5071073;28;19908;-57
2022/08/03 11:03:53;;;;;;;;;;;28.90;67.20;;;;;;5074569;28;19962;-58
2022/08/03 11:06:20;;;;;;;;;;;29.00;67.40;;;;;;5074844;28;19965;-57
2022/08/03 11:08:46;;;;;;;;;;;29.10;67.00;;;;;;5057270;28;20030;-57
2022/08/03 11:11:17;;;;;;;;;;;29.10;66.00;;;;;;5074869;28;19983;-57
2022/08/03 11:14:04;;;;;;;;;;;29.10;66.80;;;;;;5074653;28;19908;-58
2022/08/03 11:16:31;;;;;;;;;;;29.00;66.30;;;;;;5074908;28;19909;-58
2022/08/03 11:19:01;;;;;;;;;;;29.00;64.50;;;;;;5074198;28;19913;-58
2022/08/03 11:21:45;;;;;;;;;;;28.90;66.00;;;;;;5075089;28;19948;-58
2022/08/03 11:24:31;;;;;;;;;;;29.00;65.10;;;;;;5075166;28;19913;-58
2022/08/03 11:27:15;;;;;;;;;;;29.00;64.70;;;;;;5074624;28;19915;-58
2022/08/03 11:29:53;;;;;;;;;;;29.00;65.30;;;;;;5074203;28;19908;-58
2022/08/03 11:32:42;;;;;;;;;;;29.10;63.90;;;;;;5073857;28;20320;-58
2022/08/03 11:35:16;;;;;;;;;;;29.20;64.20;;;;;;5074733;28;19982;-58
2022/08/03 11:37:50;;;;;;;;;;;29.30;64.60;;;;;;5068671;28;19935;-56
2022/08/03 11:40:32;;;;;;;;;;;29.30;64.50;;;;;;5074109;28;19985;-58
2022/08/03 11:42:57;;;;;;;;;;;29.40;63.80;;;;;;5074285;28;19913;-57
2022/08/03 11:45:23;;;;;;;;;;;29.50;63.90;;;;;;5074456;28;19923;-58
2022/08/03 11:47:51;;;;;;;;;;;29.50;64.20;;;;;;5073646;28;19951;-58
2022/08/03 11:50:18;;;;;;;;;;;29.50;63.80;;;;;;5072394;28;19920;-57
2022/08/03 11:52:44;;;;;;;;;;;29.50;64.00;;;;;;5067145;28;19923;-57
2022/08/03 11:55:10;;;;;;;;;;;29.40;63.30;;;;;;5076519;28;19916;-57
2022/08/03 11:57:36;;;;;;;;;;;29.40;63.60;;;;;;5079614;28;20007;-56
2022/08/03 12:00:02;;;;;;;;;;;29.40;62.90;;;;;;5080844;28;20003;-58
2022/08/03 12:02:28;;;;;;;;;;;29.40;63.30;;;;;;5077846;28;19998;-57
2022/08/03 12:04:59;;;;;;;;;;;29.40;62.60;;;;;;5077957;28;20459;-58
2022/08/03 12:07:28;;;;;;;;;;;29.50;62.40;;;;;;5079129;28;19912;-57
2022/08/03 12:10:06;;;;;;;;;;;29.60;63.20;;;;;;5073661;28;19947;-57
2022/08/03 12:12:32;;;;;;;;;;;29.70;62.10;;;;;;5078494;28;20453;-57
2022/08/03 12:14:57;;;;;;;;;;;29.70;62.30;;;;;;5077454;28;19978;-57
2022/08/03 12:17:23;;;;;;;;;;;29.80;62.10;;;;;;5076249;28;20777;-57
2022/08/03 12:19:48;;;;;;;;;;;29.80;61.90;;;;;;5077994;28;19999;-57
2022/08/03 12:22:15;;;;;;;;;;;29.90;61.50;;;;;;5077029;28;19920;-57
2022/08/03 12:24:41;;;;;;;;;;;29.90;61.90;;;;;;5079158;28;19928;-58
2022/08/03 12:27:07;;;;;;;;;;;30.00;61.20;;;;;;5076495;28;19919;-57
2022/08/03 12:29:32;;;;;;;;;;;30.00;60.50;;;;;;5078769;28;20346;-56
2022/08/03 12:31:58;;;;;;;;;;;30.10;60.90;;;;;;5074888;28;19912;-58
2022/08/03 12:34:43;;;;;;;;;;;30.00;60.70;;;;;;5060676;28;20013;-57
2022/08/03 12:37:08;;;;;;;;;;;30.10;61.10;;;;;;5077876;28;19916;-58
2022/08/03 12:39:34;;;;;;;;;;;30.10;60.40;;;;;;5076730;28;19925;-56
2022/08/03 12:41:59;;;;;;;;;;;30.20;59.70;;;;;;5076836;28;19913;-58
2022/08/03 12:44:29;;;;;;;;;;;30.30;59.40;;;;;;5078543;28;19971;-56
2022/08/03 12:46:58;;;;;;;;;;;30.30;58.70;;;;;;5072122;28;19922;-57
2022/08/03 12:49:24;;;;;;;;;;;30.30;57.60;;;;;;5076094;28;19916;-57
2022/08/03 12:51:49;;;;;;;;;;;30.30;59.00;;;;;;5077732;28;19995;-58
2022/08/03 12:54:16;;;;;;;;;;;30.30;59.10;;;;;;5079926;28;20439;-57
2022/08/03 12:56:56;;;;;;;;;;;30.40;59.00;;;;;;5078029;28;19994;-57
2022/08/03 12:59:28;;;;;;;;;;;30.50;59.30;;;;;;5077408;28;19912;-57
2022/08/03 13:01:54;;;;;;;;;;;30.70;59.00;;;;;;5070646;28;19928;-57
2022/08/03 13:04:30;;;;;;;;;;;30.80;59.50;;;;;;5074687;28;19920;-58
2022/08/03 13:07:15;;;;;;;;;;;30.80;59.30;;;;;;5073727;28;19997;-57
2022/08/03 13:09:42;;;;;;;;;;;30.80;59.40;;;;;;5079495;28;19912;-58
2022/08/03 13:12:09;;;;;;;;;;;30.80;58.60;;;;;;5075771;28;20389;-57
2022/08/03 13:14:35;;;;;;;;;;;30.80;58.40;;;;;;5079064;28;20027;-58
2022/08/03 13:17:00;;;;;;;;;;;30.60;58.40;;;;;;5074844;28;20121;-57
2022/08/03 13:19:26;;;;;;;;;;;30.60;58.20;;;;;;5078457;28;20460;-57
2022/08/03 13:21:51;;;;;;;;;;;30.60;57.80;;;;;;5075592;28;19912;-57
2022/08/03 13:24:17;;;;;;;;;;;30.60;57.30;;;;;;5077364;28;19935;-56
2022/08/03 13:26:43;;;;;;;;;;;30.60;57.60;;;;;;5074352;28;19920;-58
2022/08/03 13:29:09;;;;;;;;;;;30.60;57.50;;;;;;5074834;28;20011;-58
2022/08/03 13:31:34;;;;;;;;;;;30.70;57.60;;;;;;5076126;28;19920;-57
2022/08/03 13:34:00;;;;;;;;;;;30.70;56.80;;;;;;5074758;28;19951;-57
2022/08/03 13:36:26;;;;;;;;;;;30.80;57.10;;;;;;5078124;28;19962;-57
2022/08/03 13:38:52;;;;;;;;;;;30.80;57.50;;;;;;5077453;28;19927;-57
2022/08/03 13:41:17;;;;;;;;;;;31.00;57.20;;;;;;5075029;28;19920;-57
2022/08/03 13:43:43;;;;;;;;;;;31.20;56.90;;;;;;5077807;28;20343;-56
2022/08/03 13:46:11;;;;;;;;;;;31.20;56.60;;;;;;5078000;28;19921;-58
2022/08/03 13:48:37;;;;;;;;;;;31.20;57.20;;;;;;5075836;28;19985;-57
2022/08/03 13:51:02;;;;;;;;;;;31.20;57.20;;;;;;5075894;28;19916;-57
2022/08/03 13:53:28;;;;;;;;;;;31.20;57.20;;;;;;5074248;28;19966;-58
2022/08/03 13:55:53;;;;;;;;;;;31.20;57.30;;;;;;5076703;28;20440;-59
2022/08/03 13:58:19;;;;;;;;;;;31.20;56.60;;;;;;5075121;28;19930;-57
2022/08/03 14:00:44;;;;;;;;;;;31.20;56.50;;;;;;5077765;28;19955;-57
2022/08/03 14:03:10;;;;;;;;;;;31.20;55.20;;;;;;5077313;28;19912;-56
2022/08/03 14:05:37;;;;;;;;;;;31.20;55.90;;;;;;5077839;28;20358;-57
2022/08/03 14:08:05;;;;;;;;;;;31.20;55.60;;;;;;5076284;28;20029;-58
2022/08/03 14:10:41;;;;;;;;;;;31.20;55.70;;;;;;5076812;28;19963;-57
2022/08/03 14:13:07;;;;;;;;;;;31.20;54.90;;;;;;5072933;28;19917;-56
2022/08/03 14:15:33;;;;;;;;;;;31.30;55.80;;;;;;5076387;28;19924;-58
2022/08/03 14:17:58;;;;;;;;;;;31.30;55.80;;;;;;5072667;28;20029;-57
2022/08/03 14:20:24;;;;;;;;;;;31.30;54.40;;;;;;5076260;28;19920;-57
2022/08/03 14:22:49;;;;;;;;;;;31.40;54.60;;;;;;5074040;28;19963;-57
2022/08/03 14:25:15;;;;;;;;;;;31.40;54.80;;;;;;5075135;28;19928;-57